sensor_id;sensor_type;location;lat;lon;timestamp;P1;durP1;ratioP1;P2;durP2;ratioP2
26750;SDS011;14345;48.272;25.926;2022-07-22T00:01:20;9.25;;;5.07;;
26750;SDS011;14345;48.272;25.926;2022-07-22T00:03:46;11.38;;;6.07;;
26750;SDS011;14345;48.272;25.926;2022-07-22T00:06:12;7.70;;;4.75;;
26750;SDS011;14345;48.272;25.926;2022-07-22T00:08:38;12.75;;;5.78;;
26750;SDS011;14345;48.272;25.926;2022-07-22T00:11:04;10.77;;;4.90;;
26750;SDS011;14345;48.272;25.926;2022-07-22T00:13:30;10.43;;;5.47;;
26750;SDS011;14345;48.272;25.926;2022-07-22T00:15:57;12.50;;;4.95;;
26750;SDS011;14345;48.272;25.926;2022-07-22T00:18:24;9.95;;;4.40;;
26750;SDS011;14345;48.272;25.926;2022-07-22T00:20:50;7.50;;;4.55;;
26750;SDS011;14345;48.272;25.926;2022-07-22T00:23:16;7.93;;;4.15;;
26750;SDS011;14345;48.272;25.926;2022-07-22T00:25:42;11.02;;;4.13;;
26750;SDS011;14345;48.272;25.926;2022-07-22T00:28:08;10.65;;;4.85;;
26750;SDS011;14345;48.272;25.926;2022-07-22T00:30:34;9.55;;;5.05;;
26750;SDS011;14345;48.272;25.926;2022-07-22T00:33:00;9.18;;;4.53;;
26750;SDS011;14345;48.272;25.926;2022-07-22T00:35:26;9.10;;;4.82;;
26750;SDS011;14345;48.272;25.926;2022-07-22T00:37:52;11.90;;;4.85;;
26750;SDS011;14345;48.272;25.926;2022-07-22T00:40:18;8.07;;;4.90;;
26750;SDS011;14345;48.272;25.926;2022-07-22T00:42:44;8.38;;;5.28;;
26750;SDS011;14345;48.272;25.926;2022-07-22T00:45:11;11.32;;;4.90;;
26750;SDS011;14345;48.272;25.926;2022-07-22T00:47:37;11.30;;;4.85;;
26750;SDS011;14345;48.272;25.926;2022-07-22T00:50:03;6.40;;;4.45;;
26750;SDS011;14345;48.272;25.926;2022-07-22T00:52:30;10.23;;;4.85;;
26750;SDS011;14345;48.272;25.926;2022-07-22T00:54:57;8.73;;;4.40;;
26750;SDS011;14345;48.272;25.926;2022-07-22T00:57:24;8.07;;;4.40;;
26750;SDS011;14345;48.272;25.926;2022-07-22T00:59:50;9.60;;;4.63;;
26750;SDS011;14345;48.272;25.926;2022-07-22T01:02:16;8.20;;;4.07;;
26750;SDS011;14345;48.272;25.926;2022-07-22T01:04:42;8.50;;;4.30;;
26750;SDS011;14345;48.272;25.926;2022-07-22T01:07:08;6.70;;;3.90;;
26750;SDS011;14345;48.272;25.926;2022-07-22T01:09:34;5.85;;;3.35;;
26750;SDS011;14345;48.272;25.926;2022-07-22T01:12:00;6.50;;;3.60;;
26750;SDS011;14345;48.272;25.926;2022-07-22T01:14:26;6.90;;;3.38;;
26750;SDS011;14345;48.272;25.926;2022-07-22T01:16:53;5.93;;;3.80;;
26750;SDS011;14345;48.272;25.926;2022-07-22T01:19:19;10.40;;;3.53;;
26750;SDS011;14345;48.272;25.926;2022-07-22T01:21:45;6.85;;;3.50;;
26750;SDS011;14345;48.272;25.926;2022-07-22T01:24:11;6.15;;;2.78;;
26750;SDS011;14345;48.272;25.926;2022-07-22T01:26:37;7.45;;;3.58;;
26750;SDS011;14345;48.272;25.926;2022-07-22T01:29:03;6.43;;;3.33;;
26750;SDS011;14345;48.272;25.926;2022-07-22T01:31:29;6.35;;;3.78;;
26750;SDS011;14345;48.272;25.926;2022-07-22T01:33:55;4.07;;;2.80;;
26750;SDS011;14345;48.272;25.926;2022-07-22T01:36:21;5.72;;;2.60;;
26750;SDS011;14345;48.272;25.926;2022-07-22T01:38:47;6.75;;;2.65;;
26750;SDS011;14345;48.272;25.926;2022-07-22T01:41:13;4.82;;;2.72;;
26750;SDS011;14345;48.272;25.926;2022-07-22T01:43:39;7.32;;;3.05;;
26750;SDS011;14345;48.272;25.926;2022-07-22T01:46:05;7.32;;;3.60;;
26750;SDS011;14345;48.272;25.926;2022-07-22T01:48:31;5.28;;;2.88;;
26750;SDS011;14345;48.272;25.926;2022-07-22T01:50:58;7.88;;;3.22;;
26750;SDS011;14345;48.272;25.926;2022-07-22T01:53:24;5.05;;;2.95;;
26750;SDS011;14345;48.272;25.926;2022-07-22T01:55:50;5.05;;;2.95;;
26750;SDS011;14345;48.272;25.926;2022-07-22T01:58:16;4.75;;;3.10;;
26750;SDS011;14345;48.272;25.926;2022-07-22T02:00:43;4.35;;;2.65;;
26750;SDS011;14345;48.272;25.926;2022-07-22T02:03:09;5.50;;;2.92;;
26750;SDS011;14345;48.272;25.926;2022-07-22T02:05:36;4.70;;;2.92;;
26750;SDS011;14345;48.272;25.926;2022-07-22T02:08:02;6.85;;;3.03;;
26750;SDS011;14345;48.272;25.926;2022-07-22T02:10:29;3.90;;;2.70;;
26750;SDS011;14345;48.272;25.926;2022-07-22T02:12:56;5.05;;;3.03;;
26750;SDS011;14345;48.272;25.926;2022-07-22T02:15:22;4.78;;;3.03;;
26750;SDS011;14345;48.272;25.926;2022-07-22T02:17:48;5.95;;;3.38;;
26750;SDS011;14345;48.272;25.926;2022-07-22T02:20:14;4.38;;;3.38;;
26750;SDS011;14345;48.272;25.926;2022-07-22T02:22:40;4.18;;;2.60;;
26750;SDS011;14345;48.272;25.926;2022-07-22T02:25:07;7.43;;;2.90;;
26750;SDS011;14345;48.272;25.926;2022-07-22T02:27:33;6.45;;;3.25;;
26750;SDS011;14345;48.272;25.926;2022-07-22T02:29:59;7.03;;;2.83;;
26750;SDS011;14345;48.272;25.926;2022-07-22T02:32:26;7.00;;;3.17;;
26750;SDS011;14345;48.272;25.926;2022-07-22T02:34:52;8.40;;;2.72;;
26750;SDS011;14345;48.272;25.926;2022-07-22T02:37:18;6.25;;;3.33;;
26750;SDS011;14345;48.272;25.926;2022-07-22T02:39:44;5.00;;;3.10;;
26750;SDS011;14345;48.272;25.926;2022-07-22T02:42:10;4.80;;;3.13;;
26750;SDS011;14345;48.272;25.926;2022-07-22T02:44:36;5.10;;;2.88;;
26750;SDS011;14345;48.272;25.926;2022-07-22T02:47:02;6.72;;;3.63;;
26750;SDS011;14345;48.272;25.926;2022-07-22T02:49:28;9.32;;;5.25;;
26750;SDS011;14345;48.272;25.926;2022-07-22T02:51:54;8.55;;;5.60;;
26750;SDS011;14345;48.272;25.926;2022-07-22T02:54:20;9.32;;;4.85;;
26750;SDS011;14345;48.272;25.926;2022-07-22T02:56:46;5.85;;;3.83;;
26750;SDS011;14345;48.272;25.926;2022-07-22T02:59:12;7.78;;;3.80;;
26750;SDS011;14345;48.272;25.926;2022-07-22T03:01:39;6.60;;;3.95;;
26750;SDS011;14345;48.272;25.926;2022-07-22T03:04:05;13.52;;;8.30;;
26750;SDS011;14345;48.272;25.926;2022-07-22T03:06:31;11.43;;;7.75;;
26750;SDS011;14345;48.272;25.926;2022-07-22T03:08:57;9.75;;;6.03;;
26750;SDS011;14345;48.272;25.926;2022-07-22T03:11:23;7.55;;;4.65;;
26750;SDS011;14345;48.272;25.926;2022-07-22T03:13:49;6.15;;;3.90;;
26750;SDS011;14345;48.272;25.926;2022-07-22T03:16:15;8.60;;;4.20;;
26750;SDS011;14345;48.272;25.926;2022-07-22T03:18:41;5.05;;;3.20;;
26750;SDS011;14345;48.272;25.926;2022-07-22T03:21:07;10.32;;;4.13;;
26750;SDS011;14345;48.272;25.926;2022-07-22T03:23:33;8.40;;;5.30;;
26750;SDS011;14345;48.272;25.926;2022-07-22T03:25:59;8.73;;;5.78;;
26750;SDS011;14345;48.272;25.926;2022-07-22T03:28:25;6.70;;;4.30;;
26750;SDS011;14345;48.272;25.926;2022-07-22T03:30:52;5.15;;;3.22;;
26750;SDS011;14345;48.272;25.926;2022-07-22T03:33:18;4.50;;;2.80;;
26750;SDS011;14345;48.272;25.926;2022-07-22T03:35:44;7.10;;;3.05;;
26750;SDS011;14345;48.272;25.926;2022-07-22T03:38:10;5.43;;;3.08;;
26750;SDS011;14345;48.272;25.926;2022-07-22T03:40:36;4.85;;;2.85;;
26750;SDS011;14345;48.272;25.926;2022-07-22T03:43:02;4.43;;;2.38;;
26750;SDS011;14345;48.272;25.926;2022-07-22T03:45:30;4.88;;;3.05;;
26750;SDS011;14345;48.272;25.926;2022-07-22T03:47:56;3.85;;;2.55;;
26750;SDS011;14345;48.272;25.926;2022-07-22T03:50:23;3.88;;;2.58;;
26750;SDS011;14345;48.272;25.926;2022-07-22T03:52:49;6.15;;;3.03;;
26750;SDS011;14345;48.272;25.926;2022-07-22T03:55:15;4.43;;;2.92;;
26750;SDS011;14345;48.272;25.926;2022-07-22T03:57:41;5.57;;;2.60;;
26750;SDS011;14345;48.272;25.926;2022-07-22T04:00:07;5.60;;;2.92;;
26750;SDS011;14345;48.272;25.926;2022-07-22T04:02:34;5.47;;;2.85;;
26750;SDS011;14345;48.272;25.926;2022-07-22T04:05:00;5.28;;;2.95;;
26750;SDS011;14345;48.272;25.926;2022-07-22T04:07:26;4.05;;;2.85;;
26750;SDS011;14345;48.272;25.926;2022-07-22T04:09:52;4.90;;;3.15;;
26750;SDS011;14345;48.272;25.926;2022-07-22T04:12:29;4.47;;;2.85;;
26750;SDS011;14345;48.272;25.926;2022-07-22T04:14:55;5.88;;;2.67;;
26750;SDS011;14345;48.272;25.926;2022-07-22T04:17:21;5.53;;;2.83;;
26750;SDS011;14345;48.272;25.926;2022-07-22T04:19:47;6.25;;;3.15;;
26750;SDS011;14345;48.272;25.926;2022-07-22T04:22:13;4.82;;;2.80;;
26750;SDS011;14345;48.272;25.926;2022-07-22T04:24:39;5.95;;;3.10;;
26750;SDS011;14345;48.272;25.926;2022-07-22T04:27:05;3.90;;;2.53;;
26750;SDS011;14345;48.272;25.926;2022-07-22T04:29:31;4.75;;;2.30;;
26750;SDS011;14345;48.272;25.926;2022-07-22T04:31:57;6.00;;;3.05;;
26750;SDS011;14345;48.272;25.926;2022-07-22T04:34:23;3.28;;;2.65;;
26750;SDS011;14345;48.272;25.926;2022-07-22T04:36:49;4.45;;;2.65;;
26750;SDS011;14345;48.272;25.926;2022-07-22T04:39:16;4.53;;;2.92;;
26750;SDS011;14345;48.272;25.926;2022-07-22T04:41:43;4.93;;;2.90;;
26750;SDS011;14345;48.272;25.926;2022-07-22T04:44:09;7.90;;;2.80;;
26750;SDS011;14345;48.272;25.926;2022-07-22T04:46:35;4.78;;;2.67;;
26750;SDS011;14345;48.272;25.926;2022-07-22T04:49:01;5.82;;;2.60;;
26750;SDS011;14345;48.272;25.926;2022-07-22T04:51:27;6.88;;;3.30;;
26750;SDS011;14345;48.272;25.926;2022-07-22T04:53:54;5.13;;;2.65;;
26750;SDS011;14345;48.272;25.926;2022-07-22T04:56:20;5.38;;;2.65;;
26750;SDS011;14345;48.272;25.926;2022-07-22T04:58:46;6.57;;;2.55;;
26750;SDS011;14345;48.272;25.926;2022-07-22T05:01:12;6.57;;;3.08;;
26750;SDS011;14345;48.272;25.926;2022-07-22T05:03:39;6.93;;;3.28;;
26750;SDS011;14345;48.272;25.926;2022-07-22T05:06:05;5.18;;;3.05;;
26750;SDS011;14345;48.272;25.926;2022-07-22T05:08:31;5.30;;;3.15;;
26750;SDS011;14345;48.272;25.926;2022-07-22T05:10:57;5.32;;;3.20;;
26750;SDS011;14345;48.272;25.926;2022-07-22T05:13:23;5.28;;;3.35;;
26750;SDS011;14345;48.272;25.926;2022-07-22T05:15:50;7.57;;;3.50;;
26750;SDS011;14345;48.272;25.926;2022-07-22T05:18:16;5.85;;;2.92;;
26750;SDS011;14345;48.272;25.926;2022-07-22T05:20:42;5.70;;;2.78;;
26750;SDS011;14345;48.272;25.926;2022-07-22T05:23:08;5.05;;;2.85;;
26750;SDS011;14345;48.272;25.926;2022-07-22T05:25:34;4.82;;;3.03;;
26750;SDS011;14345;48.272;25.926;2022-07-22T05:28:00;4.45;;;2.75;;
26750;SDS011;14345;48.272;25.926;2022-07-22T05:30:26;8.50;;;3.25;;
26750;SDS011;14345;48.272;25.926;2022-07-22T05:32:53;3.92;;;2.38;;
26750;SDS011;14345;48.272;25.926;2022-07-22T05:35:19;6.15;;;2.72;;
26750;SDS011;14345;48.272;25.926;2022-07-22T05:37:46;5.82;;;3.08;;
26750;SDS011;14345;48.272;25.926;2022-07-22T05:40:12;7.40;;;2.65;;
26750;SDS011;14345;48.272;25.926;2022-07-22T05:42:38;4.25;;;2.53;;
26750;SDS011;14345;48.272;25.926;2022-07-22T05:45:04;7.32;;;2.95;;
26750;SDS011;14345;48.272;25.926;2022-07-22T05:47:30;7.32;;;3.05;;
26750;SDS011;14345;48.272;25.926;2022-07-22T05:49:56;7.28;;;3.10;;
26750;SDS011;14345;48.272;25.926;2022-07-22T05:52:22;5.78;;;2.78;;
26750;SDS011;14345;48.272;25.926;2022-07-22T05:54:48;4.60;;;3.03;;
26750;SDS011;14345;48.272;25.926;2022-07-22T05:57:14;4.22;;;2.42;;
26750;SDS011;14345;48.272;25.926;2022-07-22T05:59:40;6.20;;;2.70;;
26750;SDS011;14345;48.272;25.926;2022-07-22T06:02:07;5.78;;;3.03;;
26750;SDS011;14345;48.272;25.926;2022-07-22T06:04:33;5.25;;;2.50;;
26750;SDS011;14345;48.272;25.926;2022-07-22T06:06:59;4.00;;;2.10;;
26750;SDS011;14345;48.272;25.926;2022-07-22T06:09:25;6.60;;;2.65;;
26750;SDS011;14345;48.272;25.926;2022-07-22T06:14:36;6.72;;;2.83;;
26750;SDS011;14345;48.272;25.926;2022-07-22T06:17:02;4.38;;;2.38;;
26750;SDS011;14345;48.272;25.926;2022-07-22T06:19:28;4.28;;;2.63;;
26750;SDS011;14345;48.272;25.926;2022-07-22T06:21:55;4.03;;;2.40;;
26750;SDS011;14345;48.272;25.926;2022-07-22T06:24:21;4.60;;;2.90;;
26750;SDS011;14345;48.272;25.926;2022-07-22T06:26:47;6.05;;;3.05;;
26750;SDS011;14345;48.272;25.926;2022-07-22T06:29:14;7.10;;;2.92;;
26750;SDS011;14345;48.272;25.926;2022-07-22T06:31:40;7.65;;;3.10;;
26750;SDS011;14345;48.272;25.926;2022-07-22T06:34:06;5.50;;;3.03;;
26750;SDS011;14345;48.272;25.926;2022-07-22T06:36:32;4.13;;;2.80;;
26750;SDS011;14345;48.272;25.926;2022-07-22T06:38:58;7.25;;;2.80;;
26750;SDS011;14345;48.272;25.926;2022-07-22T06:41:25;6.88;;;2.50;;
26750;SDS011;14345;48.272;25.926;2022-07-22T06:43:51;4.68;;;2.78;;
26750;SDS011;14345;48.272;25.926;2022-07-22T06:46:17;6.43;;;2.80;;
26750;SDS011;14345;48.272;25.926;2022-07-22T06:48:43;7.18;;;3.22;;
26750;SDS011;14345;48.272;25.926;2022-07-22T06:51:09;5.80;;;2.80;;
26750;SDS011;14345;48.272;25.926;2022-07-22T06:53:35;6.03;;;2.80;;
26750;SDS011;14345;48.272;25.926;2022-07-22T06:56:01;6.00;;;3.55;;
26750;SDS011;14345;48.272;25.926;2022-07-22T06:58:27;4.15;;;2.58;;
26750;SDS011;14345;48.272;25.926;2022-07-22T07:00:53;4.47;;;2.55;;
26750;SDS011;14345;48.272;25.926;2022-07-22T07:03:19;7.20;;;3.53;;
26750;SDS011;14345;48.272;25.926;2022-07-22T07:05:46;5.78;;;2.78;;
26750;SDS011;14345;48.272;25.926;2022-07-22T07:08:12;5.25;;;3.20;;
26750;SDS011;14345;48.272;25.926;2022-07-22T07:10:38;7.53;;;3.17;;
26750;SDS011;14345;48.272;25.926;2022-07-22T07:13:04;5.85;;;4.30;;
26750;SDS011;14345;48.272;25.926;2022-07-22T07:15:31;5.22;;;3.08;;
26750;SDS011;14345;48.272;25.926;2022-07-22T07:17:57;4.35;;;3.10;;
26750;SDS011;14345;48.272;25.926;2022-07-22T07:20:23;4.78;;;2.85;;
26750;SDS011;14345;48.272;25.926;2022-07-22T07:22:49;4.90;;;2.95;;
26750;SDS011;14345;48.272;25.926;2022-07-22T07:25:15;3.72;;;2.40;;
26750;SDS011;14345;48.272;25.926;2022-07-22T07:27:41;5.15;;;3.00;;
26750;SDS011;14345;48.272;25.926;2022-07-22T07:30:07;6.95;;;2.97;;
26750;SDS011;14345;48.272;25.926;2022-07-22T07:32:35;5.50;;;2.80;;
26750;SDS011;14345;48.272;25.926;2022-07-22T07:35:01;6.40;;;2.97;;
26750;SDS011;14345;48.272;25.926;2022-07-22T07:37:27;6.88;;;3.25;;
26750;SDS011;14345;48.272;25.926;2022-07-22T07:39:53;4.70;;;2.67;;
26750;SDS011;14345;48.272;25.926;2022-07-22T07:42:19;6.40;;;2.72;;
26750;SDS011;14345;48.272;25.926;2022-07-22T07:44:45;6.43;;;3.20;;
26750;SDS011;14345;48.272;25.926;2022-07-22T07:47:11;4.68;;;3.13;;
26750;SDS011;14345;48.272;25.926;2022-07-22T07:49:42;7.88;;;3.28;;
26750;SDS011;14345;48.272;25.926;2022-07-22T07:52:08;5.00;;;2.70;;
26750;SDS011;14345;48.272;25.926;2022-07-22T07:54:35;7.60;;;3.38;;
26750;SDS011;14345;48.272;25.926;2022-07-22T07:57:01;5.60;;;2.80;;
26750;SDS011;14345;48.272;25.926;2022-07-22T07:59:27;7.13;;;3.15;;
26750;SDS011;14345;48.272;25.926;2022-07-22T08:01:53;6.03;;;3.00;;
26750;SDS011;14345;48.272;25.926;2022-07-22T08:04:19;12.88;;;8.27;;
26750;SDS011;14345;48.272;25.926;2022-07-22T08:06:45;6.95;;;2.95;;
26750;SDS011;14345;48.272;25.926;2022-07-22T08:09:11;7.55;;;2.90;;
26750;SDS011;14345;48.272;25.926;2022-07-22T08:11:37;5.32;;;2.58;;
26750;SDS011;14345;48.272;25.926;2022-07-22T08:14:03;4.90;;;2.90;;
26750;SDS011;14345;48.272;25.926;2022-07-22T08:16:29;4.75;;;2.72;;
26750;SDS011;14345;48.272;25.926;2022-07-22T08:18:55;4.85;;;2.88;;
26750;SDS011;14345;48.272;25.926;2022-07-22T08:21:21;4.45;;;2.92;;
26750;SDS011;14345;48.272;25.926;2022-07-22T08:23:48;4.25;;;2.63;;
26750;SDS011;14345;48.272;25.926;2022-07-22T08:26:14;5.65;;;2.58;;
26750;SDS011;14345;48.272;25.926;2022-07-22T08:28:40;9.05;;;2.78;;
26750;SDS011;14345;48.272;25.926;2022-07-22T08:31:06;5.85;;;3.17;;
26750;SDS011;14345;48.272;25.926;2022-07-22T08:33:32;5.80;;;2.78;;
26750;SDS011;14345;48.272;25.926;2022-07-22T08:35:58;3.92;;;2.50;;
26750;SDS011;14345;48.272;25.926;2022-07-22T08:38:24;2.95;;;2.30;;
26750;SDS011;14345;48.272;25.926;2022-07-22T08:40:50;6.78;;;3.45;;
26750;SDS011;14345;48.272;25.926;2022-07-22T08:43:19;4.25;;;2.80;;
26750;SDS011;14345;48.272;25.926;2022-07-22T08:45:45;6.10;;;3.00;;
26750;SDS011;14345;48.272;25.926;2022-07-22T08:48:13;7.60;;;2.90;;
26750;SDS011;14345;48.272;25.926;2022-07-22T08:50:39;6.22;;;2.90;;
26750;SDS011;14345;48.272;25.926;2022-07-22T08:53:08;6.07;;;2.83;;
26750;SDS011;14345;48.272;25.926;2022-07-22T08:55:39;4.57;;;2.85;;
26750;SDS011;14345;48.272;25.926;2022-07-22T08:58:05;4.07;;;2.50;;
26750;SDS011;14345;48.272;25.926;2022-07-22T09:00:32;7.07;;;3.22;;
26750;SDS011;14345;48.272;25.926;2022-07-22T09:02:58;6.25;;;3.28;;
26750;SDS011;14345;48.272;25.926;2022-07-22T09:05:24;6.32;;;3.22;;
26750;SDS011;14345;48.272;25.926;2022-07-22T09:07:58;6.22;;;3.08;;
26750;SDS011;14345;48.272;25.926;2022-07-22T09:10:29;5.18;;;2.80;;
26750;SDS011;14345;48.272;25.926;2022-07-22T09:12:57;4.70;;;2.83;;
26750;SDS011;14345;48.272;25.926;2022-07-22T09:15:27;4.85;;;2.92;;
26750;SDS011;14345;48.272;25.926;2022-07-22T09:17:54;4.07;;;2.92;;
26750;SDS011;14345;48.272;25.926;2022-07-22T09:20:20;6.03;;;3.00;;
26750;SDS011;14345;48.272;25.926;2022-07-22T09:22:47;6.82;;;2.92;;
26750;SDS011;14345;48.272;25.926;2022-07-22T09:25:27;7.75;;;3.10;;
26750;SDS011;14345;48.272;25.926;2022-07-22T09:27:55;5.65;;;3.58;;
26750;SDS011;14345;48.272;25.926;2022-07-22T09:30:25;4.82;;;2.80;;
26750;SDS011;14345;48.272;25.926;2022-07-22T09:32:52;6.00;;;2.85;;
26750;SDS011;14345;48.272;25.926;2022-07-22T09:35:19;5.72;;;3.22;;
26750;SDS011;14345;48.272;25.926;2022-07-22T09:37:59;5.57;;;2.92;;
26750;SDS011;14345;48.272;25.926;2022-07-22T09:40:28;5.25;;;2.67;;
26750;SDS011;14345;48.272;25.926;2022-07-22T09:43:01;4.95;;;2.60;;
26750;SDS011;14345;48.272;25.926;2022-07-22T09:45:28;4.63;;;2.92;;
26750;SDS011;14345;48.272;25.926;2022-07-22T09:47:55;5.63;;;2.90;;
26750;SDS011;14345;48.272;25.926;2022-07-22T09:50:22;7.07;;;2.70;;
26750;SDS011;14345;48.272;25.926;2022-07-22T09:52:50;5.53;;;2.90;;
26750;SDS011;14345;48.272;25.926;2022-07-22T09:55:17;4.60;;;2.83;;
26750;SDS011;14345;48.272;25.926;2022-07-22T09:57:43;5.00;;;2.63;;
26750;SDS011;14345;48.272;25.926;2022-07-22T10:00:10;4.85;;;2.92;;
26750;SDS011;14345;48.272;25.926;2022-07-22T10:02:39;9.82;;;2.97;;
26750;SDS011;14345;48.272;25.926;2022-07-22T10:05:06;6.57;;;3.08;;
26750;SDS011;14345;48.272;25.926;2022-07-22T10:07:32;4.43;;;2.92;;
26750;SDS011;14345;48.272;25.926;2022-07-22T10:10:00;4.15;;;2.75;;
26750;SDS011;14345;48.272;25.926;2022-07-22T10:12:27;4.63;;;2.92;;
26750;SDS011;14345;48.272;25.926;2022-07-22T10:14:53;5.70;;;2.65;;
26750;SDS011;14345;48.272;25.926;2022-07-22T10:17:20;3.95;;;2.50;;
26750;SDS011;14345;48.272;25.926;2022-07-22T10:19:46;3.53;;;2.53;;
26750;SDS011;14345;48.272;25.926;2022-07-22T10:25:00;4.18;;;2.63;;
26750;SDS011;14345;48.272;25.926;2022-07-22T10:30:12;4.22;;;2.60;;
26750;SDS011;14345;48.272;25.926;2022-07-22T10:32:38;5.47;;;3.03;;
26750;SDS011;14345;48.272;25.926;2022-07-22T10:40:10;7.20;;;2.95;;
26750;SDS011;14345;48.272;25.926;2022-07-22T10:45:21;5.03;;;2.17;;
26750;SDS011;14345;48.272;25.926;2022-07-22T10:47:51;2.92;;;1.92;;
26750;SDS011;14345;48.272;25.926;2022-07-22T10:53:08;2.45;;;1.90;;
26750;SDS011;14345;48.272;25.926;2022-07-22T10:55:34;6.00;;;2.25;;
26750;SDS011;14345;48.272;25.926;2022-07-22T11:00:45;4.88;;;2.10;;
26750;SDS011;14345;48.272;25.926;2022-07-22T11:03:22;4.53;;;2.10;;
26750;SDS011;14345;48.272;25.926;2022-07-22T11:05:49;3.65;;;2.30;;
26750;SDS011;14345;48.272;25.926;2022-07-22T11:08:15;6.95;;;2.53;;
26750;SDS011;14345;48.272;25.926;2022-07-22T11:10:46;5.85;;;2.20;;
26750;SDS011;14345;48.272;25.926;2022-07-22T11:13:13;5.22;;;2.05;;
26750;SDS011;14345;48.272;25.926;2022-07-22T11:15:56;2.25;;;1.63;;
26750;SDS011;14345;48.272;25.926;2022-07-22T11:18:22;3.15;;;2.15;;
26750;SDS011;14345;48.272;25.926;2022-07-22T11:20:48;3.97;;;1.95;;
26750;SDS011;14345;48.272;25.926;2022-07-22T11:23:14;4.88;;;2.28;;
26750;SDS011;14345;48.272;25.926;2022-07-22T11:25:41;5.18;;;2.10;;
26750;SDS011;14345;48.272;25.926;2022-07-22T11:28:08;4.53;;;2.10;;
26750;SDS011;14345;48.272;25.926;2022-07-22T11:30:34;5.57;;;2.20;;
26750;SDS011;14345;48.272;25.926;2022-07-22T11:33:01;2.40;;;1.45;;
26750;SDS011;14345;48.272;25.926;2022-07-22T11:35:27;5.40;;;1.88;;
26750;SDS011;14345;48.272;25.926;2022-07-22T11:37:57;3.67;;;1.80;;
26750;SDS011;14345;48.272;25.926;2022-07-22T11:40:23;3.58;;;1.60;;
26750;SDS011;14345;48.272;25.926;2022-07-22T11:43:10;3.72;;;1.95;;
26750;SDS011;14345;48.272;25.926;2022-07-22T11:45:35;1.88;;;1.65;;
26750;SDS011;14345;48.272;25.926;2022-07-22T11:48:08;3.63;;;2.05;;
26750;SDS011;14345;48.272;25.926;2022-07-22T11:53:01;4.85;;;2.10;;
26750;SDS011;14345;48.272;25.926;2022-07-22T11:55:27;4.55;;;1.67;;
26750;SDS011;14345;48.272;25.926;2022-07-22T11:57:53;6.72;;;2.20;;
26750;SDS011;14345;48.272;25.926;2022-07-22T12:00:19;2.58;;;1.67;;
26750;SDS011;14345;48.272;25.926;2022-07-22T12:02:45;4.40;;;2.55;;
26750;SDS011;14345;48.272;25.926;2022-07-22T12:05:12;4.18;;;2.30;;
26750;SDS011;14345;48.272;25.926;2022-07-22T12:07:38;3.47;;;1.80;;
26750;SDS011;14345;48.272;25.926;2022-07-22T12:10:04;2.60;;;1.50;;
26750;SDS011;14345;48.272;25.926;2022-07-22T12:12:40;2.90;;;1.80;;
26750;SDS011;14345;48.272;25.926;2022-07-22T12:15:06;10.93;;;2.25;;
26750;SDS011;14345;48.272;25.926;2022-07-22T12:17:34;3.80;;;1.63;;
26750;SDS011;14345;48.272;25.926;2022-07-22T12:20:09;2.03;;;1.50;;
26750;SDS011;14345;48.272;25.926;2022-07-22T12:22:35;2.10;;;1.50;;
26750;SDS011;14345;48.272;25.926;2022-07-22T12:25:10;3.50;;;1.50;;
26750;SDS011;14345;48.272;25.926;2022-07-22T12:27:36;4.07;;;2.20;;
26750;SDS011;14345;48.272;25.926;2022-07-22T12:30:10;4.03;;;1.77;;
26750;SDS011;14345;48.272;25.926;2022-07-22T12:32:37;3.70;;;1.80;;
26750;SDS011;14345;48.272;25.926;2022-07-22T12:35:12;3.80;;;1.80;;
26750;SDS011;14345;48.272;25.926;2022-07-22T12:37:43;3.33;;;1.90;;
26750;SDS011;14345;48.272;25.926;2022-07-22T12:42:45;4.73;;;1.50;;
26750;SDS011;14345;48.272;25.926;2022-07-22T12:50:24;3.20;;;1.60;;
26750;SDS011;14345;48.272;25.926;2022-07-22T12:52:51;3.63;;;1.88;;
26750;SDS011;14345;48.272;25.926;2022-07-22T12:55:18;2.60;;;1.50;;
26750;SDS011;14345;48.272;25.926;2022-07-22T12:57:44;4.72;;;1.65;;
26750;SDS011;14345;48.272;25.926;2022-07-22T13:00:10;4.20;;;1.30;;
26750;SDS011;14345;48.272;25.926;2022-07-22T13:02:41;4.78;;;1.85;;
26750;SDS011;14345;48.272;25.926;2022-07-22T13:05:07;4.72;;;1.70;;
26750;SDS011;14345;48.272;25.926;2022-07-22T13:07:33;5.30;;;1.73;;
26750;SDS011;14345;48.272;25.926;2022-07-22T13:09:59;2.28;;;1.42;;
26750;SDS011;14345;48.272;25.926;2022-07-22T13:12:25;4.53;;;1.40;;
26750;SDS011;14345;48.272;25.926;2022-07-22T13:14:51;2.60;;;1.50;;
26750;SDS011;14345;48.272;25.926;2022-07-22T13:17:17;2.45;;;1.48;;
26750;SDS011;14345;48.272;25.926;2022-07-22T13:19:44;4.88;;;1.65;;
26750;SDS011;14345;48.272;25.926;2022-07-22T13:22:10;6.95;;;1.67;;
26750;SDS011;14345;48.272;25.926;2022-07-22T13:24:36;2.22;;;1.55;;
26750;SDS011;14345;48.272;25.926;2022-07-22T13:27:02;3.15;;;1.90;;
26750;SDS011;14345;48.272;25.926;2022-07-22T13:29:28;2.58;;;1.70;;
26750;SDS011;14345;48.272;25.926;2022-07-22T13:31:54;5.72;;;1.90;;
26750;SDS011;14345;48.272;25.926;2022-07-22T13:34:21;3.58;;;1.40;;
26750;SDS011;14345;48.272;25.926;2022-07-22T13:36:47;5.20;;;1.63;;
26750;SDS011;14345;48.272;25.926;2022-07-22T13:39:13;3.67;;;1.77;;
26750;SDS011;14345;48.272;25.926;2022-07-22T13:41:39;3.08;;;1.52;;
26750;SDS011;14345;48.272;25.926;2022-07-22T13:44:05;3.38;;;1.63;;
26750;SDS011;14345;48.272;25.926;2022-07-22T13:46:33;3.15;;;1.27;;
26750;SDS011;14345;48.272;25.926;2022-07-22T13:48:59;4.15;;;1.40;;
26750;SDS011;14345;48.272;25.926;2022-07-22T13:51:26;2.63;;;1.60;;
26750;SDS011;14345;48.272;25.926;2022-07-22T13:53:52;3.38;;;1.60;;
26750;SDS011;14345;48.272;25.926;2022-07-22T13:56:18;3.22;;;1.80;;
26750;SDS011;14345;48.272;25.926;2022-07-22T13:58:44;2.63;;;1.50;;
26750;SDS011;14345;48.272;25.926;2022-07-22T14:01:10;3.38;;;1.60;;
26750;SDS011;14345;48.272;25.926;2022-07-22T14:03:37;4.07;;;1.30;;
26750;SDS011;14345;48.272;25.926;2022-07-22T14:06:04;5.47;;;1.20;;
26750;SDS011;14345;48.272;25.926;2022-07-22T14:08:30;3.53;;;2.03;;
26750;SDS011;14345;48.272;25.926;2022-07-22T14:10:57;4.53;;;2.08;;
26750;SDS011;14345;48.272;25.926;2022-07-22T14:13:23;5.95;;;1.77;;
26750;SDS011;14345;48.272;25.926;2022-07-22T14:15:49;5.55;;;1.40;;
26750;SDS011;14345;48.272;25.926;2022-07-22T14:18:15;4.20;;;1.50;;
26750;SDS011;14345;48.272;25.926;2022-07-22T14:20:41;2.75;;;1.60;;
26750;SDS011;14345;48.272;25.926;2022-07-22T14:23:07;2.08;;;1.17;;
26750;SDS011;14345;48.272;25.926;2022-07-22T14:25:38;5.63;;;1.65;;
26750;SDS011;14345;48.272;25.926;2022-07-22T14:28:05;7.22;;;1.80;;
26750;SDS011;14345;48.272;25.926;2022-07-22T14:30:31;5.35;;;1.73;;
26750;SDS011;14345;48.272;25.926;2022-07-22T14:32:57;2.60;;;1.20;;
26750;SDS011;14345;48.272;25.926;2022-07-22T14:35:24;4.32;;;1.48;;
26750;SDS011;14345;48.272;25.926;2022-07-22T14:37:50;3.35;;;1.73;;
26750;SDS011;14345;48.272;25.926;2022-07-22T14:40:16;4.00;;;1.30;;
26750;SDS011;14345;48.272;25.926;2022-07-22T14:42:42;3.70;;;1.77;;
26750;SDS011;14345;48.272;25.926;2022-07-22T14:45:09;4.32;;;1.73;;
26750;SDS011;14345;48.272;25.926;2022-07-22T14:47:36;2.72;;;1.30;;
26750;SDS011;14345;48.272;25.926;2022-07-22T14:50:02;5.20;;;1.60;;
26750;SDS011;14345;48.272;25.926;2022-07-22T14:52:28;3.53;;;1.52;;
26750;SDS011;14345;48.272;25.926;2022-07-22T14:54:55;2.80;;;1.80;;
26750;SDS011;14345;48.272;25.926;2022-07-22T14:57:21;4.10;;;1.48;;
26750;SDS011;14345;48.272;25.926;2022-07-22T14:59:47;3.35;;;1.50;;
26750;SDS011;14345;48.272;25.926;2022-07-22T15:02:13;5.78;;;1.30;;